sensor_id;sensor_type;location;lat;lon;timestamp;P1;durP1;ratioP1;P2;durP2;ratioP2
41255;SDS011;26989;45.524;10.938;2023-04-25T00:00:53;3.70;;;2.08;;
41255;SDS011;26989;45.524;10.938;2023-04-25T00:03:20;4.00;;;1.77;;
41255;SDS011;26989;45.524;10.938;2023-04-25T00:05:47;5.85;;;2.00;;
41255;SDS011;26989;45.524;10.938;2023-04-25T00:08:15;3.53;;;2.10;;
41255;SDS011;26989;45.524;10.938;2023-04-25T00:10:42;6.68;;;2.80;;
41255;SDS011;26989;45.524;10.938;2023-04-25T00:13:09;4.90;;;2.17;;
41255;SDS011;26989;45.524;10.938;2023-04-25T00:15:37;4.68;;;2.50;;
41255;SDS011;26989;45.524;10.938;2023-04-25T00:18:04;4.10;;;2.30;;
41255;SDS011;26989;45.524;10.938;2023-04-25T00:20:32;3.80;;;2.40;;
41255;SDS011;26989;45.524;10.938;2023-04-25T00:22:59;4.93;;;2.47;;
41255;SDS011;26989;45.524;10.938;2023-04-25T00:25:26;2.20;;;1.88;;
41255;SDS011;26989;45.524;10.938;2023-04-25T00:27:53;5.88;;;2.40;;
41255;SDS011;26989;45.524;10.938;2023-04-25T00:30:19;3.95;;;2.25;;
41255;SDS011;26989;45.524;10.938;2023-04-25T00:32:46;4.32;;;2.25;;
41255;SDS011;26989;45.524;10.938;2023-04-25T00:35:13;4.47;;;2.17;;
41255;SDS011;26989;45.524;10.938;2023-04-25T00:37:40;3.03;;;2.35;;
41255;SDS011;26989;45.524;10.938;2023-04-25T00:40:07;3.47;;;2.40;;
41255;SDS011;26989;45.524;10.938;2023-04-25T00:42:34;3.22;;;2.17;;
41255;SDS011;26989;45.524;10.938;2023-04-25T00:45:04;8.05;;;2.47;;
41255;SDS011;26989;45.524;10.938;2023-04-25T00:47:31;6.55;;;2.50;;
41255;SDS011;26989;45.524;10.938;2023-04-25T00:49:59;3.50;;;2.95;;
41255;SDS011;26989;45.524;10.938;2023-04-25T00:52:26;4.60;;;3.05;;
41255;SDS011;26989;45.524;10.938;2023-04-25T00:54:53;7.75;;;3.65;;
41255;SDS011;26989;45.524;10.938;2023-04-25T00:57:20;3.20;;;2.88;;
41255;SDS011;26989;45.524;10.938;2023-04-25T00:59:47;6.75;;;3.50;;
41255;SDS011;26989;45.524;10.938;2023-04-25T01:02:17;6.20;;;3.05;;
41255;SDS011;26989;45.524;10.938;2023-04-25T01:04:44;5.47;;;3.30;;
41255;SDS011;26989;45.524;10.938;2023-04-25T01:07:11;3.78;;;2.95;;
41255;SDS011;26989;45.524;10.938;2023-04-25T01:09:38;4.93;;;3.35;;
41255;SDS011;26989;45.524;10.938;2023-04-25T01:12:05;4.70;;;3.42;;
41255;SDS011;26989;45.524;10.938;2023-04-25T01:14:32;5.60;;;3.67;;
41255;SDS011;26989;45.524;10.938;2023-04-25T01:16:59;3.72;;;3.30;;
41255;SDS011;26989;45.524;10.938;2023-04-25T01:19:26;5.28;;;3.40;;
41255;SDS011;26989;45.524;10.938;2023-04-25T01:21:53;4.93;;;3.03;;
41255;SDS011;26989;45.524;10.938;2023-04-25T01:24:20;3.83;;;3.38;;
41255;SDS011;26989;45.524;10.938;2023-04-25T01:26:47;4.93;;;3.63;;
41255;SDS011;26989;45.524;10.938;2023-04-25T01:29:18;4.78;;;3.42;;
41255;SDS011;26989;45.524;10.938;2023-04-25T01:31:46;4.78;;;3.35;;
41255;SDS011;26989;45.524;10.938;2023-04-25T01:34:13;3.92;;;3.03;;
41255;SDS011;26989;45.524;10.938;2023-04-25T01:36:39;3.38;;;2.97;;
41255;SDS011;26989;45.524;10.938;2023-04-25T01:39:06;4.05;;;3.00;;
41255;SDS011;26989;45.524;10.938;2023-04-25T01:41:34;4.65;;;3.17;;
41255;SDS011;26989;45.524;10.938;2023-04-25T01:44:01;2.97;;;2.13;;
41255;SDS011;26989;45.524;10.938;2023-04-25T01:46:28;3.30;;;2.63;;
41255;SDS011;26989;45.524;10.938;2023-04-25T01:48:56;2.20;;;1.50;;
41255;SDS011;26989;45.524;10.938;2023-04-25T01:51:23;1.20;;;1.02;;
41255;SDS011;26989;45.524;10.938;2023-04-25T01:53:50;1.65;;;1.10;;
41255;SDS011;26989;45.524;10.938;2023-04-25T01:56:18;2.33;;;1.70;;
41255;SDS011;26989;45.524;10.938;2023-04-25T01:58:45;1.70;;;1.30;;
41255;SDS011;26989;45.524;10.938;2023-04-25T02:01:12;1.10;;;0.63;;
41255;SDS011;26989;45.524;10.938;2023-04-25T02:03:39;1.20;;;0.50;;
41255;SDS011;26989;45.524;10.938;2023-04-25T02:06:06;0.40;;;0.38;;
41255;SDS011;26989;45.524;10.938;2023-04-25T02:08:33;0.30;;;0.30;;
41255;SDS011;26989;45.524;10.938;2023-04-25T02:11:00;0.88;;;0.45;;
41255;SDS011;26989;45.524;10.938;2023-04-25T02:13:27;0.75;;;0.15;;
41255;SDS011;26989;45.524;10.938;2023-04-25T02:15:53;0.10;;;0.10;;
41255;SDS011;26989;45.524;10.938;2023-04-25T02:18:21;0.80;;;0.20;;
41255;SDS011;26989;45.524;10.938;2023-04-25T02:20:47;0.75;;;0.30;;
41255;SDS011;26989;45.524;10.938;2023-04-25T02:23:14;0.95;;;0.32;;
41255;SDS011;26989;45.524;10.938;2023-04-25T02:25:41;0.25;;;0.20;;
41255;SDS011;26989;45.524;10.938;2023-04-25T02:28:08;1.15;;;0.17;;
41255;SDS011;26989;45.524;10.938;2023-04-25T02:30:35;0.60;;;0.20;;
41255;SDS011;26989;45.524;10.938;2023-04-25T02:33:02;1.73;;;0.40;;
41255;SDS011;26989;45.524;10.938;2023-04-25T02:35:29;1.50;;;0.25;;
41255;SDS011;26989;45.524;10.938;2023-04-25T02:37:56;0.40;;;0.35;;
41255;SDS011;26989;45.524;10.938;2023-04-25T02:40:23;0.40;;;0.30;;
41255;SDS011;26989;45.524;10.938;2023-04-25T02:42:49;0.57;;;0.40;;
41255;SDS011;26989;45.524;10.938;2023-04-25T02:45:16;0.80;;;0.60;;
41255;SDS011;26989;45.524;10.938;2023-04-25T02:47:43;0.95;;;0.50;;
41255;SDS011;26989;45.524;10.938;2023-04-25T02:50:10;0.93;;;0.40;;
41255;SDS011;26989;45.524;10.938;2023-04-25T02:52:37;0.77;;;0.50;;
41255;SDS011;26989;45.524;10.938;2023-04-25T02:55:04;1.45;;;0.60;;
41255;SDS011;26989;45.524;10.938;2023-04-25T02:57:31;0.52;;;0.52;;
41255;SDS011;26989;45.524;10.938;2023-04-25T02:59:58;0.98;;;0.40;;
41255;SDS011;26989;45.524;10.938;2023-04-25T03:02:25;1.65;;;0.45;;
41255;SDS011;26989;45.524;10.938;2023-04-25T03:04:52;1.98;;;0.32;;
41255;SDS011;26989;45.524;10.938;2023-04-25T03:07:18;1.52;;;0.40;;
41255;SDS011;26989;45.524;10.938;2023-04-25T03:09:45;0.52;;;0.43;;
41255;SDS011;26989;45.524;10.938;2023-04-25T03:12:12;1.20;;;0.40;;
41255;SDS011;26989;45.524;10.938;2023-04-25T03:14:39;0.60;;;0.50;;
41255;SDS011;26989;45.524;10.938;2023-04-25T03:17:06;0.60;;;0.40;;
41255;SDS011;26989;45.524;10.938;2023-04-25T03:19:32;3.42;;;0.70;;
41255;SDS011;26989;45.524;10.938;2023-04-25T03:21:59;1.38;;;0.80;;
41255;SDS011;26989;45.524;10.938;2023-04-25T03:24:26;1.95;;;0.57;;
41255;SDS011;26989;45.524;10.938;2023-04-25T03:26:53;1.33;;;0.60;;
41255;SDS011;26989;45.524;10.938;2023-04-25T03:29:20;0.85;;;0.60;;
41255;SDS011;26989;45.524;10.938;2023-04-25T03:31:50;1.80;;;1.02;;
41255;SDS011;26989;45.524;10.938;2023-04-25T03:34:17;1.67;;;0.80;;
41255;SDS011;26989;45.524;10.938;2023-04-25T03:36:44;1.40;;;1.20;;
41255;SDS011;26989;45.524;10.938;2023-04-25T03:39:11;2.78;;;1.00;;
41255;SDS011;26989;45.524;10.938;2023-04-25T03:41:38;2.70;;;0.80;;
41255;SDS011;26989;45.524;10.938;2023-04-25T03:44:05;0.80;;;0.47;;
41255;SDS011;26989;45.524;10.938;2023-04-25T03:46:31;0.40;;;0.40;;
41255;SDS011;26989;45.524;10.938;2023-04-25T03:48:58;0.82;;;0.50;;
41255;SDS011;26989;45.524;10.938;2023-04-25T03:51:25;1.80;;;1.00;;
41255;SDS011;26989;45.524;10.938;2023-04-25T03:53:52;2.17;;;1.30;;
41255;SDS011;26989;45.524;10.938;2023-04-25T03:56:19;2.58;;;1.10;;
41255;SDS011;26989;45.524;10.938;2023-04-25T03:58:46;1.15;;;0.90;;
41255;SDS011;26989;45.524;10.938;2023-04-25T04:01:13;0.73;;;0.63;;
41255;SDS011;26989;45.524;10.938;2023-04-25T04:03:40;2.50;;;0.90;;
41255;SDS011;26989;45.524;10.938;2023-04-25T04:06:07;1.15;;;0.70;;
41255;SDS011;26989;45.524;10.938;2023-04-25T04:08:35;1.92;;;0.45;;
41255;SDS011;26989;45.524;10.938;2023-04-25T04:11:02;0.40;;;0.40;;
41255;SDS011;26989;45.524;10.938;2023-04-25T04:13:28;0.30;;;0.13;;
41255;SDS011;26989;45.524;10.938;2023-04-25T04:15:56;0.32;;;0.28;;
41255;SDS011;26989;45.524;10.938;2023-04-25T04:18:23;0.55;;;0.20;;
41255;SDS011;26989;45.524;10.938;2023-04-25T04:20:50;0.20;;;0.20;;
41255;SDS011;26989;45.524;10.938;2023-04-25T04:23:17;0.20;;;0.20;;
41255;SDS011;26989;45.524;10.938;2023-04-25T04:25:45;0.50;;;0.20;;
41255;SDS011;26989;45.524;10.938;2023-04-25T04:28:13;0.30;;;0.30;;
41255;SDS011;26989;45.524;10.938;2023-04-25T04:30:39;0.40;;;0.20;;
41255;SDS011;26989;45.524;10.938;2023-04-25T04:33:07;2.33;;;0.30;;
41255;SDS011;26989;45.524;10.938;2023-04-25T04:35:34;0.40;;;0.30;;
41255;SDS011;26989;45.524;10.938;2023-04-25T04:38:01;1.13;;;0.40;;
41255;SDS011;26989;45.524;10.938;2023-04-25T04:40:28;0.52;;;0.28;;
41255;SDS011;26989;45.524;10.938;2023-04-25T04:42:57;0.63;;;0.30;;
41255;SDS011;26989;45.524;10.938;2023-04-25T04:45:24;3.60;;;1.60;;
41255;SDS011;26989;45.524;10.938;2023-04-25T04:47:51;0.93;;;0.63;;
41255;SDS011;26989;45.524;10.938;2023-04-25T04:50:18;1.58;;;0.93;;
41255;SDS011;26989;45.524;10.938;2023-04-25T04:52:46;0.52;;;0.50;;
41255;SDS011;26989;45.524;10.938;2023-04-25T04:55:12;2.22;;;0.60;;
41255;SDS011;26989;45.524;10.938;2023-04-25T04:57:39;0.93;;;0.55;;
41255;SDS011;26989;45.524;10.938;2023-04-25T05:00:06;3.03;;;0.40;;
41255;SDS011;26989;45.524;10.938;2023-04-25T05:02:37;6.32;;;1.05;;
41255;SDS011;26989;45.524;10.938;2023-04-25T05:05:05;3.25;;;1.40;;
41255;SDS011;26989;45.524;10.938;2023-04-25T05:07:32;3.85;;;1.33;;
41255;SDS011;26989;45.524;10.938;2023-04-25T05:09:59;3.65;;;0.80;;
41255;SDS011;26989;45.524;10.938;2023-04-25T05:12:26;2.65;;;1.40;;
41255;SDS011;26989;45.524;10.938;2023-04-25T05:14:52;1.95;;;1.75;;
41255;SDS011;26989;45.524;10.938;2023-04-25T05:17:22;3.25;;;1.90;;
41255;SDS011;26989;45.524;10.938;2023-04-25T05:19:49;3.65;;;1.77;;
41255;SDS011;26989;45.524;10.938;2023-04-25T05:22:16;2.85;;;2.17;;
41255;SDS011;26989;45.524;10.938;2023-04-25T05:24:42;2.85;;;2.17;;
41255;SDS011;26989;45.524;10.938;2023-04-25T05:27:10;3.05;;;2.72;;
41255;SDS011;26989;45.524;10.938;2023-04-25T05:29:36;3.53;;;2.67;;
41255;SDS011;26989;45.524;10.938;2023-04-25T05:32:04;6.88;;;2.80;;
41255;SDS011;26989;45.524;10.938;2023-04-25T05:34:31;5.57;;;2.10;;
41255;SDS011;26989;45.524;10.938;2023-04-25T05:36:58;3.85;;;2.45;;
41255;SDS011;26989;45.524;10.938;2023-04-25T05:39:25;2.72;;;2.53;;
41255;SDS011;26989;45.524;10.938;2023-04-25T05:41:52;3.25;;;2.95;;
41255;SDS011;26989;45.524;10.938;2023-04-25T05:44:20;3.28;;;1.55;;
41255;SDS011;26989;45.524;10.938;2023-04-25T05:46:47;1.65;;;1.23;;
41255;SDS011;26989;45.524;10.938;2023-04-25T05:49:14;1.95;;;1.20;;
41255;SDS011;26989;45.524;10.938;2023-04-25T05:51:44;2.15;;;1.20;;
41255;SDS011;26989;45.524;10.938;2023-04-25T05:54:11;1.75;;;1.10;;
41255;SDS011;26989;45.524;10.938;2023-04-25T05:56:38;1.10;;;1.00;;
41255;SDS011;26989;45.524;10.938;2023-04-25T05:59:05;2.42;;;1.30;;
41255;SDS011;26989;45.524;10.938;2023-04-25T06:01:32;2.60;;;1.33;;
41255;SDS011;26989;45.524;10.938;2023-04-25T06:03:59;1.38;;;1.27;;
41255;SDS011;26989;45.524;10.938;2023-04-25T06:06:26;2.08;;;1.08;;
41255;SDS011;26989;45.524;10.938;2023-04-25T06:08:53;2.15;;;1.55;;
41255;SDS011;26989;45.524;10.938;2023-04-25T06:11:21;1.10;;;0.98;;
41255;SDS011;26989;45.524;10.938;2023-04-25T06:13:48;1.13;;;0.90;;
41255;SDS011;26989;45.524;10.938;2023-04-25T06:16:15;3.83;;;1.23;;
41255;SDS011;26989;45.524;10.938;2023-04-25T06:18:42;2.08;;;0.90;;
41255;SDS011;26989;45.524;10.938;2023-04-25T06:21:09;0.60;;;0.60;;
41255;SDS011;26989;45.524;10.938;2023-04-25T06:23:36;1.13;;;0.82;;
41255;SDS011;26989;45.524;10.938;2023-04-25T06:26:03;2.58;;;0.55;;
41255;SDS011;26989;45.524;10.938;2023-04-25T06:28:30;0.60;;;0.40;;
41255;SDS011;26989;45.524;10.938;2023-04-25T06:30:57;0.82;;;0.60;;
41255;SDS011;26989;45.524;10.938;2023-04-25T06:33:24;0.60;;;0.45;;
41255;SDS011;26989;45.524;10.938;2023-04-25T06:35:51;1.30;;;0.40;;
41255;SDS011;26989;45.524;10.938;2023-04-25T06:38:18;0.82;;;0.60;;
41255;SDS011;26989;45.524;10.938;2023-04-25T06:40:45;0.73;;;0.57;;
41255;SDS011;26989;45.524;10.938;2023-04-25T06:43:12;1.08;;;0.57;;
41255;SDS011;26989;45.524;10.938;2023-04-25T06:45:39;0.77;;;0.50;;
41255;SDS011;26989;45.524;10.938;2023-04-25T06:48:06;0.60;;;0.60;;
41255;SDS011;26989;45.524;10.938;2023-04-25T06:50:33;1.38;;;1.08;;
41255;SDS011;26989;45.524;10.938;2023-04-25T06:53:00;1.20;;;0.98;;
41255;SDS011;26989;45.524;10.938;2023-04-25T06:55:29;1.92;;;0.98;;
41255;SDS011;26989;45.524;10.938;2023-04-25T06:57:56;2.35;;;0.93;;
41255;SDS011;26989;45.524;10.938;2023-04-25T07:00:23;1.48;;;1.35;;
41255;SDS011;26989;45.524;10.938;2023-04-25T07:02:50;1.83;;;0.82;;
41255;SDS011;26989;45.524;10.938;2023-04-25T07:05:17;1.02;;;0.95;;
41255;SDS011;26989;45.524;10.938;2023-04-25T07:07:44;2.17;;;0.60;;
41255;SDS011;26989;45.524;10.938;2023-04-25T07:10:11;1.20;;;0.80;;
41255;SDS011;26989;45.524;10.938;2023-04-25T07:12:38;0.98;;;0.60;;
41255;SDS011;26989;45.524;10.938;2023-04-25T07:15:05;1.75;;;0.50;;
41255;SDS011;26989;45.524;10.938;2023-04-25T07:17:34;1.20;;;0.70;;
41255;SDS011;26989;45.524;10.938;2023-04-25T07:20:01;1.30;;;0.60;;
41255;SDS011;26989;45.524;10.938;2023-04-25T07:22:29;1.10;;;0.55;;
41255;SDS011;26989;45.524;10.938;2023-04-25T07:24:56;2.10;;;0.82;;
41255;SDS011;26989;45.524;10.938;2023-04-25T07:27:23;3.20;;;0.90;;
41255;SDS011;26989;45.524;10.938;2023-04-25T07:29:50;1.98;;;0.70;;
41255;SDS011;26989;45.524;10.938;2023-04-25T07:32:17;2.47;;;0.80;;
41255;SDS011;26989;45.524;10.938;2023-04-25T07:34:44;0.95;;;0.77;;
41255;SDS011;26989;45.524;10.938;2023-04-25T07:37:13;1.35;;;0.77;;
41255;SDS011;26989;45.524;10.938;2023-04-25T07:39:40;1.40;;;0.98;;
41255;SDS011;26989;45.524;10.938;2023-04-25T07:42:08;1.52;;;0.95;;
41255;SDS011;26989;45.524;10.938;2023-04-25T07:44:35;1.92;;;0.80;;
41255;SDS011;26989;45.524;10.938;2023-04-25T07:47:06;1.08;;;0.47;;
41255;SDS011;26989;45.524;10.938;2023-04-25T07:49:36;0.77;;;0.63;;
41255;SDS011;26989;45.524;10.938;2023-04-25T07:52:04;1.13;;;0.80;;
41255;SDS011;26989;45.524;10.938;2023-04-25T07:54:32;1.55;;;0.60;;
41255;SDS011;26989;45.524;10.938;2023-04-25T07:56:59;1.55;;;0.68;;
41255;SDS011;26989;45.524;10.938;2023-04-25T07:59:27;1.85;;;0.80;;
41255;SDS011;26989;45.524;10.938;2023-04-25T08:01:55;2.33;;;0.63;;
41255;SDS011;26989;45.524;10.938;2023-04-25T08:04:24;1.23;;;0.60;;
41255;SDS011;26989;45.524;10.938;2023-04-25T08:06:52;1.05;;;0.50;;
41255;SDS011;26989;45.524;10.938;2023-04-25T08:09:20;3.13;;;0.70;;
41255;SDS011;26989;45.524;10.938;2023-04-25T08:11:47;3.70;;;0.80;;
41255;SDS011;26989;45.524;10.938;2023-04-25T08:14:14;1.45;;;0.90;;
41255;SDS011;26989;45.524;10.938;2023-04-25T08:16:41;2.50;;;0.70;;
41255;SDS011;26989;45.524;10.938;2023-04-25T08:19:09;1.45;;;0.88;;
41255;SDS011;26989;45.524;10.938;2023-04-25T08:21:37;1.40;;;0.98;;
41255;SDS011;26989;45.524;10.938;2023-04-25T08:24:04;1.75;;;0.70;;
41255;SDS011;26989;45.524;10.938;2023-04-25T08:26:31;1.20;;;0.70;;
41255;SDS011;26989;45.524;10.938;2023-04-25T08:29:00;1.83;;;0.80;;
41255;SDS011;26989;45.524;10.938;2023-04-25T08:31:27;0.70;;;0.70;;
41255;SDS011;26989;45.524;10.938;2023-04-25T08:33:53;1.63;;;0.80;;
41255;SDS011;26989;45.524;10.938;2023-04-25T08:36:20;1.10;;;0.70;;
41255;SDS011;26989;45.524;10.938;2023-04-25T08:39:04;2.47;;;0.85;;
41255;SDS011;26989;45.524;10.938;2023-04-25T08:41:31;3.78;;;0.80;;
41255;SDS011;26989;45.524;10.938;2023-04-25T08:43:58;1.13;;;0.75;;
41255;SDS011;26989;45.524;10.938;2023-04-25T08:46:27;1.25;;;0.80;;
41255;SDS011;26989;45.524;10.938;2023-04-25T08:49:00;2.17;;;0.95;;
41255;SDS011;26989;45.524;10.938;2023-04-25T08:51:31;0.77;;;0.60;;
41255;SDS011;26989;45.524;10.938;2023-04-25T08:54:09;2.10;;;0.80;;
41255;SDS011;26989;45.524;10.938;2023-04-25T08:56:57;1.52;;;0.68;;
41255;SDS011;26989;45.524;10.938;2023-04-25T08:59:28;1.30;;;0.55;;
41255;SDS011;26989;45.524;10.938;2023-04-25T09:01:57;1.40;;;0.60;;
41255;SDS011;26989;45.524;10.938;2023-04-25T09:04:32;1.92;;;0.70;;
41255;SDS011;26989;45.524;10.938;2023-04-25T09:06:59;1.42;;;0.63;;
41255;SDS011;26989;45.524;10.938;2023-04-25T09:09:26;1.05;;;0.60;;
41255;SDS011;26989;45.524;10.938;2023-04-25T09:11:53;0.98;;;0.70;;
41255;SDS011;26989;45.524;10.938;2023-04-25T09:14:22;0.70;;;0.70;;
41255;SDS011;26989;45.524;10.938;2023-04-25T09:19:22;1.10;;;0.77;;
41255;SDS011;26989;45.524;10.938;2023-04-25T09:22:06;1.63;;;0.80;;
41255;SDS011;26989;45.524;10.938;2023-04-25T09:27:09;5.40;;;1.80;;
41255;SDS011;26989;45.524;10.938;2023-04-25T09:29:39;2.80;;;0.90;;
41255;SDS011;26989;45.524;10.938;2023-04-25T09:32:20;0.60;;;0.50;;
41255;SDS011;26989;45.524;10.938;2023-04-25T09:34:49;1.83;;;0.73;;
41255;SDS011;26989;45.524;10.938;2023-04-25T09:37:18;1.13;;;0.70;;
41255;SDS011;26989;45.524;10.938;2023-04-25T09:39:56;1.25;;;0.80;;
41255;SDS011;26989;45.524;10.938;2023-04-25T09:42:31;2.80;;;1.00;;
41255;SDS011;26989;45.524;10.938;2023-04-25T09:45:01;1.27;;;0.90;;
41255;SDS011;26989;45.524;10.938;2023-04-25T09:47:29;2.70;;;0.77;;
41255;SDS011;26989;45.524;10.938;2023-04-25T09:49:57;0.82;;;0.60;;
41255;SDS011;26989;45.524;10.938;2023-04-25T09:52:24;2.17;;;0.73;;
41255;SDS011;26989;45.524;10.938;2023-04-25T09:54:52;2.03;;;0.80;;
41255;SDS011;26989;45.524;10.938;2023-04-25T09:57:20;1.00;;;0.60;;
41255;SDS011;26989;45.524;10.938;2023-04-25T09:59:49;2.70;;;0.80;;
41255;SDS011;26989;45.524;10.938;2023-04-25T10:02:20;0.90;;;0.57;;
41255;SDS011;26989;45.524;10.938;2023-04-25T10:04:49;1.95;;;0.77;;
41255;SDS011;26989;45.524;10.938;2023-04-25T10:07:22;1.30;;;0.70;;
41255;SDS011;26989;45.524;10.938;2023-04-25T10:10:03;0.80;;;0.50;;
41255;SDS011;26989;45.524;10.938;2023-04-25T10:12:32;0.80;;;0.60;;
41255;SDS011;26989;45.524;10.938;2023-04-25T10:15:00;1.80;;;0.95;;
41255;SDS011;26989;45.524;10.938;2023-04-25T10:17:27;1.15;;;0.88;;
41255;SDS011;26989;45.524;10.938;2023-04-25T10:19:55;0.98;;;0.40;;
41255;SDS011;26989;45.524;10.938;2023-04-25T10:24:57;0.82;;;0.55;;
41255;SDS011;26989;45.524;10.938;2023-04-25T10:27:26;1.60;;;0.90;;
41255;SDS011;26989;45.524;10.938;2023-04-25T10:30:01;0.73;;;0.65;;
41255;SDS011;26989;45.524;10.938;2023-04-25T10:32:32;1.25;;;0.80;;
41255;SDS011;26989;45.524;10.938;2023-04-25T10:38:03;1.95;;;0.57;;
41255;SDS011;26989;45.524;10.938;2023-04-25T10:40:32;0.88;;;0.50;;
41255;SDS011;26989;45.524;10.938;2023-04-25T10:46:00;1.08;;;0.50;;
41255;SDS011;26989;45.524;10.938;2023-04-25T10:48:31;0.90;;;0.50;;
41255;SDS011;26989;45.524;10.938;2023-04-25T10:51:07;0.73;;;0.57;;
41255;SDS011;26989;45.524;10.938;2023-04-25T10:53:35;0.77;;;0.40;;
41255;SDS011;26989;45.524;10.938;2023-04-25T10:56:17;0.98;;;0.40;;
41255;SDS011;26989;45.524;10.938;2023-04-25T10:59:03;0.50;;;0.40;;
41255;SDS011;26989;45.524;10.938;2023-04-25T11:04:06;2.47;;;0.47;;
41255;SDS011;26989;45.524;10.938;2023-04-25T11:09:49;0.40;;;0.30;;
41255;SDS011;26989;45.524;10.938;2023-04-25T11:12:17;1.52;;;0.40;;
41255;SDS011;26989;45.524;10.938;2023-04-25T11:14:44;2.10;;;0.40;;
41255;SDS011;26989;45.524;10.938;2023-04-25T11:17:11;2.05;;;0.50;;
41255;SDS011;26989;45.524;10.938;2023-04-25T11:19:38;0.40;;;0.35;;
41255;SDS011;26989;45.524;10.938;2023-04-25T11:22:05;0.85;;;0.57;;
41255;SDS011;26989;45.524;10.938;2023-04-25T11:24:34;0.57;;;0.50;;
41255;SDS011;26989;45.524;10.938;2023-04-25T11:27:02;1.25;;;0.82;;
41255;SDS011;26989;45.524;10.938;2023-04-25T11:29:31;0.38;;;0.30;;
41255;SDS011;26989;45.524;10.938;2023-04-25T11:31:59;1.60;;;0.30;;
41255;SDS011;26989;45.524;10.938;2023-04-25T11:34:31;0.35;;;0.30;;
41255;SDS011;26989;45.524;10.938;2023-04-25T11:37:00;0.60;;;0.30;;
41255;SDS011;26989;45.524;10.938;2023-04-25T11:39:28;0.75;;;0.32;;
41255;SDS011;26989;45.524;10.938;2023-04-25T11:41:56;0.50;;;0.30;;
41255;SDS011;26989;45.524;10.938;2023-04-25T11:44:30;0.73;;;0.40;;
41255;SDS011;26989;45.524;10.938;2023-04-25T11:46:57;0.30;;;0.30;;
41255;SDS011;26989;45.524;10.938;2023-04-25T11:49:24;1.33;;;0.30;;
41255;SDS011;26989;45.524;10.938;2023-04-25T11:51:57;0.60;;;0.30;;
41255;SDS011;26989;45.524;10.938;2023-04-25T11:54:26;1.88;;;0.90;;
41255;SDS011;26989;45.524;10.938;2023-04-25T11:56:53;1.20;;;0.52;;
41255;SDS011;26989;45.524;10.938;2023-04-25T11:59:22;0.50;;;0.30;;
41255;SDS011;26989;45.524;10.938;2023-04-25T12:01:51;0.85;;;0.65;;
41255;SDS011;26989;45.524;10.938;2023-04-25T12:04:22;0.60;;;0.40;;
41255;SDS011;26989;45.524;10.938;2023-04-25T12:06:52;1.45;;;0.50;;
41255;SDS011;26989;45.524;10.938;2023-04-25T12:09:21;0.77;;;0.68;;
41255;SDS011;26989;45.524;10.938;2023-04-25T12:11:56;0.65;;;0.40;;
41255;SDS011;26989;45.524;10.938;2023-04-25T12:14:32;0.95;;;0.45;;
41255;SDS011;26989;45.524;10.938;2023-04-25T12:17:01;1.20;;;0.30;;
41255;SDS011;26989;45.524;10.938;2023-04-25T12:19:34;2.33;;;0.50;;
41255;SDS011;26989;45.524;10.938;2023-04-25T12:24:32;3.42;;;2.00;;
41255;SDS011;26989;45.524;10.938;2023-04-25T12:27:05;0.90;;;0.60;;
41255;SDS011;26989;45.524;10.938;2023-04-25T12:29:35;4.32;;;0.77;;
41255;SDS011;26989;45.524;10.938;2023-04-25T12:32:05;1.33;;;0.90;;
41255;SDS011;26989;45.524;10.938;2023-04-25T12:34:32;3.83;;;2.00;;
41255;SDS011;26989;45.524;10.938;2023-04-25T12:37:01;3.00;;;1.65;;
41255;SDS011;26989;45.524;10.938;2023-04-25T12:39:28;2.60;;;0.90;;
41255;SDS011;26989;45.524;10.938;2023-04-25T12:41:55;0.70;;;0.70;;
41255;SDS011;26989;45.524;10.938;2023-04-25T12:44:22;2.10;;;1.27;;
41255;SDS011;26989;45.524;10.938;2023-04-25T12:46:49;3.08;;;1.13;;
41255;SDS011;26989;45.524;10.938;2023-04-25T12:49:16;1.35;;;1.00;;
41255;SDS011;26989;45.524;10.938;2023-04-25T12:51:44;5.35;;;1.20;;
41255;SDS011;26989;45.524;10.938;2023-04-25T12:54:12;3.15;;;1.33;;
41255;SDS011;26989;45.524;10.938;2023-04-25T12:56:40;1.10;;;0.77;;
41255;SDS011;26989;45.524;10.938;2023-04-25T12:59:08;2.53;;;0.80;;
41255;SDS011;26989;45.524;10.938;2023-04-25T13:01:35;2.30;;;1.23;;
41255;SDS011;26989;45.524;10.938;2023-04-25T13:04:03;1.75;;;1.00;;
41255;SDS011;26989;45.524;10.938;2023-04-25T13:06:31;1.58;;;1.25;;
41255;SDS011;26989;45.524;10.938;2023-04-25T13:08:58;1.30;;;1.10;;
41255;SDS011;26989;45.524;10.938;2023-04-25T13:11:25;1.35;;;1.20;;
41255;SDS011;26989;45.524;10.938;2023-04-25T13:13:52;5.70;;;3.00;;
41255;SDS011;26989;45.524;10.938;2023-04-25T13:16:19;4.53;;;3.13;;
41255;SDS011;26989;45.524;10.938;2023-04-25T13:18:48;4.75;;;2.05;;
41255;SDS011;26989;45.524;10.938;2023-04-25T13:21:15;3.22;;;1.42;;
41255;SDS011;26989;45.524;10.938;2023-04-25T13:23:43;5.60;;;1.67;;
41255;SDS011;26989;45.524;10.938;2023-04-25T13:26:12;1.50;;;1.17;;
41255;SDS011;26989;45.524;10.938;2023-04-25T13:28:53;3.45;;;1.42;;
41255;SDS011;26989;45.524;10.938;2023-04-25T13:31:34;2.53;;;1.30;;
41255;SDS011;26989;45.524;10.938;2023-04-25T13:34:01;3.45;;;1.05;;
41255;SDS011;26989;45.524;10.938;2023-04-25T13:36:28;2.03;;;1.05;;
41255;SDS011;26989;45.524;10.938;2023-04-25T13:38:55;1.45;;;0.90;;
41255;SDS011;26989;45.524;10.938;2023-04-25T13:41:26;2.55;;;1.10;;
41255;SDS011;26989;45.524;10.938;2023-04-25T13:43:54;2.75;;;1.00;;
41255;SDS011;26989;45.524;10.938;2023-04-25T13:46:21;0.68;;;0.60;;
41255;SDS011;26989;45.524;10.938;2023-04-25T13:49:08;1.05;;;0.70;;
41255;SDS011;26989;45.524;10.938;2023-04-25T13:51:38;1.23;;;0.68;;
41255;SDS011;26989;45.524;10.938;2023-04-25T13:54:08;1.15;;;0.75;;
41255;SDS011;26989;45.524;10.938;2023-04-25T13:56:35;0.80;;;0.70;;
41255;SDS011;26989;45.524;10.938;2023-04-25T13:59:02;1.50;;;0.90;;
41255;SDS011;26989;45.524;10.938;2023-04-25T14:01:29;3.08;;;0.80;;
41255;SDS011;26989;45.524;10.938;2023-04-25T14:04:00;1.15;;;0.73;;
41255;SDS011;26989;45.524;10.938;2023-04-25T14:06:28;2.50;;;0.90;;
41255;SDS011;26989;45.524;10.938;2023-04-25T14:08:55;2.65;;;1.00;;
41255;SDS011;26989;45.524;10.938;2023-04-25T14:11:22;2.53;;;0.90;;
41255;SDS011;26989;45.524;10.938;2023-04-25T14:13:52;1.55;;;0.90;;
41255;SDS011;26989;45.524;10.938;2023-04-25T14:16:19;2.13;;;1.00;;
41255;SDS011;26989;45.524;10.938;2023-04-25T14:18:46;1.85;;;1.00;;
41255;SDS011;26989;45.524;10.938;2023-04-25T14:21:14;3.92;;;2.70;;
41255;SDS011;26989;45.524;10.938;2023-04-25T14:23:45;5.70;;;3.65;;
41255;SDS011;26989;45.524;10.938;2023-04-25T14:26:24;12.18;;;6.65;;
41255;SDS011;26989;45.524;10.938;2023-04-25T14:28:51;3.28;;;1.85;;
41255;SDS011;26989;45.524;10.938;2023-04-25T14:31:19;1.35;;;0.90;;
41255;SDS011;26989;45.524;10.938;2023-04-25T14:33:46;2.17;;;0.98;;
41255;SDS011;26989;45.524;10.938;2023-04-25T14:36:13;0.95;;;0.73;;
41255;SDS011;26989;45.524;10.938;2023-04-25T14:38:40;1.25;;;0.77;;
41255;SDS011;26989;45.524;10.938;2023-04-25T14:41:07;2.67;;;0.80;;
41255;SDS011;26989;45.524;10.938;2023-04-25T14:43:34;2.15;;;0.55;;
41255;SDS011;26989;45.524;10.938;2023-04-25T14:46:02;1.02;;;0.60;;
41255;SDS011;26989;45.524;10.938;2023-04-25T14:48:30;0.77;;;0.60;;
41255;SDS011;26989;45.524;10.938;2023-04-25T14:50:56;1.98;;;1.00;;
41255;SDS011;26989;45.524;10.938;2023-04-25T14:53:23;1.02;;;0.63;;
41255;SDS011;26989;45.524;10.938;2023-04-25T14:55:53;0.93;;;0.50;;
41255;SDS011;26989;45.524;10.938;2023-04-25T14:58:22;0.75;;;0.55;;
41255;SDS011;26989;45.524;10.938;2023-04-25T15:00:49;1.48;;;0.70;;